createdAt,value
2023-10-14T00:02:53.385Z,0
2023-10-14T00:08:54.105Z,0
2023-10-14T00:11:52.782Z,0
2023-10-14T00:17:53.823Z,0
2023-10-14T00:23:53.345Z,0
2023-10-14T00:26:54.553Z,0
2023-10-14T00:32:53.895Z,0
2023-10-14T00:38:54.101Z,0
2023-10-14T00:41:54.313Z,0
2023-10-14T00:47:57.193Z,0
2023-10-14T00:53:55.331Z,0
2023-10-14T00:56:57.317Z,0
2023-10-14T01:02:53.679Z,0
2023-10-14T01:08:52.874Z,0
2023-10-14T01:11:53.002Z,0
2023-10-14T01:17:53.507Z,0
2023-10-14T01:23:54.037Z,0
2023-10-14T01:26:53.230Z,0
2023-10-14T01:32:54.660Z,0
2023-10-14T01:38:53.901Z,0
2023-10-14T01:41:54.712Z,0
2023-10-14T01:47:53.488Z,0
2023-10-14T01:53:55.867Z,0
2023-10-14T01:56:53.484Z,0
2023-10-14T02:02:54.054Z,0
2023-10-14T02:08:52.902Z,0
2023-10-14T02:11:53.395Z,0
2023-10-14T02:17:53.222Z,0
2023-10-14T02:23:55.611Z,0
2023-10-14T02:26:54.442Z,0
2023-10-14T02:32:55.036Z,0
2023-10-14T02:38:55.510Z,0
2023-10-14T02:41:57.260Z,0
2023-10-14T02:47:56.221Z,0
2023-10-14T02:53:55.359Z,0
2023-10-14T02:57:37.723Z,0
2023-10-14T03:02:55.377Z,0
2023-10-14T03:08:54.554Z,0
2023-10-14T03:14:54.858Z,0
2023-10-14T03:17:55.041Z,0
2023-10-14T03:23:57.493Z,0
2023-10-14T03:29:56.732Z,0
2023-10-14T03:32:56.503Z,0
2023-10-14T03:38:57.183Z,0
2023-10-14T03:44:56.201Z,0
2023-10-14T03:47:56.855Z,0
2023-10-14T03:53:56.372Z,0
2023-10-14T03:59:54.407Z,0
2023-10-14T04:02:52.337Z,0
2023-10-14T04:08:53.136Z,0
2023-10-14T04:11:52.606Z,0
2023-10-14T04:17:53.525Z,0
2023-10-14T04:23:53.330Z,0
2023-10-14T04:26:54.359Z,0
2023-10-14T04:32:54.308Z,0
2023-10-14T04:38:56.605Z,0
2023-10-14T04:41:54.439Z,0
2023-10-14T04:47:57.296Z,0
2023-10-14T04:53:54.934Z,0
2023-10-14T04:56:56.575Z,0
2023-10-14T05:02:52.826Z,0
2023-10-14T05:05:53.475Z,0
2023-10-14T05:08:53.326Z,0
2023-10-14T05:11:53.380Z,0
2023-10-14T05:17:56.245Z,0
2023-10-14T05:20:54.097Z,0
2023-10-14T05:23:54.512Z,0
2023-10-14T05:26:54.437Z,0
2023-10-14T05:32:55.515Z,0.3
2023-10-14T05:38:54.955Z,0.8
2023-10-14T05:41:55.723Z,1.3
2023-10-14T05:47:55.657Z,2.7
2023-10-14T05:53:57.828Z,3
2023-10-14T05:56:56.182Z,4.3
2023-10-14T06:02:55.630Z,7.5
2023-10-14T06:08:53.902Z,9.9
2023-10-14T06:11:54.828Z,11.2
2023-10-14T06:17:53.804Z,15.2
2023-10-14T06:23:53.568Z,21.4
2023-10-14T06:26:53.751Z,24.5
2023-10-14T06:33:06.437Z,29.3
2023-10-14T06:38:54.469Z,34.5
2023-10-14T06:41:54.139Z,35.4
2023-10-14T06:47:55.132Z,37.2
2023-10-14T06:53:53.797Z,40.1
2023-10-14T06:56:54.413Z,41.5
2023-10-14T07:02:51.336Z,46.1
2023-10-14T07:08:52.250Z,48.3
2023-10-14T07:11:50.944Z,49.7
2023-10-14T07:17:52.052Z,52.4
2023-10-14T07:23:52.291Z,56.1
2023-10-14T07:26:53.265Z,57.1
2023-10-14T07:32:52.705Z,60.9
2023-10-14T07:38:52.666Z,207.6
2023-10-14T07:41:52.783Z,224.7
2023-10-14T07:47:54.737Z,237.3
2023-10-14T07:53:54.164Z,253.3
2023-10-14T07:56:54.756Z,259.8
2023-10-14T08:08:52.799Z,292.4
2023-10-14T08:14:53.996Z,308.2
2023-10-14T08:17:53.799Z,310
2023-10-14T08:23:55.061Z,137.5
2023-10-14T08:29:54.268Z,124.8
2023-10-14T08:32:55.193Z,150
2023-10-14T08:38:54.792Z,356.5
2023-10-14T08:44:57.000Z,372.7
2023-10-14T08:47:58.385Z,381.4
2023-10-14T08:53:57.890Z,395.8
2023-10-14T09:02:54.229Z,425
2023-10-14T09:08:54.003Z,462.6
2023-10-14T09:11:53.889Z,476.7
2023-10-14T09:17:54.176Z,484.3
2023-10-14T09:23:53.860Z,601.2
2023-10-14T09:26:54.031Z,525
2023-10-14T09:32:54.699Z,488.4
2023-10-14T09:38:55.265Z,492.5
2023-10-14T09:41:57.413Z,489.9
2023-10-14T09:47:55.752Z,478
2023-10-14T09:53:55.442Z,490.8
2023-10-14T09:57:10.980Z,487.7
2023-10-14T10:02:53.096Z,507.2
2023-10-14T10:05:52.894Z,519.6
2023-10-14T10:14:22.085Z,556.4
2023-10-14T10:18:13.569Z,566.4
2023-10-14T10:24:13.879Z,559.8
2023-10-14T10:27:14.511Z,544.7
2023-10-14T10:42:44.745Z,210.6
2023-10-14T10:48:49.757Z,260.9
2023-10-14T10:51:35.077Z,303.6
2023-10-14T11:03:56.956Z,48.7
2023-10-14T11:06:53.777Z,59.5
2023-10-14T11:12:53.888Z,64.3
2023-10-14T11:19:09.323Z,115.4
2023-10-14T11:21:54.879Z,158.7
2023-10-14T11:27:55.871Z,514.1
2023-10-14T11:33:55.316Z,506.3
2023-10-14T11:36:58.097Z,511.8
2023-10-14T11:42:55.705Z,518
2023-10-14T11:48:56.576Z,143.3
2023-10-14T11:51:57.339Z,126.7
2023-10-14T11:57:55.794Z,187.2
2023-10-14T12:00:57.316Z,241.8
2023-10-14T12:03:04.196Z,375.2
2023-10-14T12:06:04.853Z,492.4
2023-10-14T12:12:06.563Z,433.6
2023-10-14T12:18:07.169Z,480.8
2023-10-14T12:21:05.008Z,473.7
2023-10-14T12:27:22.972Z,479.6
2023-10-14T12:33:06.154Z,549.5
2023-10-14T12:36:06.887Z,618.4
2023-10-14T12:42:05.883Z,578.9
2023-10-14T12:48:06.430Z,90.2
2023-10-14T12:51:06.182Z,103.1
2023-10-14T12:57:08.148Z,181.4
2023-10-14T13:03:03.937Z,114.3
2023-10-14T13:09:03.545Z,114.5
2023-10-14T13:15:03.645Z,129.6
2023-10-14T13:18:04.537Z,146.7
2023-10-14T13:29:42.946Z,364
2023-10-14T13:34:14.492Z,152.4
2023-10-14T13:39:41.239Z,319.3
2023-10-14T13:42:41.823Z,308.2
2023-10-14T13:48:41.544Z,294.9
2023-10-14T14:07:01.771Z,265.6
2023-10-14T14:13:00.203Z,246.8
2023-10-14T14:19:01.454Z,229.3
2023-10-14T14:22:00.693Z,218.4
2023-10-14T14:28:01.736Z,199.3
2023-10-14T14:34:04.142Z,183.8
2023-10-14T14:37:02.166Z,181.8
2023-10-14T14:43:02.722Z,159.1
2023-10-14T14:49:02.270Z,142.3
2023-10-14T14:52:02.460Z,135.3
2023-10-14T14:58:03.707Z,61.7
2023-10-14T15:03:27.379Z,49.8
2023-10-14T15:06:28.016Z,46.9
2023-10-14T15:09:27.450Z,46.8
2023-10-14T15:12:38.911Z,44.4
2023-10-14T15:18:41.841Z,41.8
2023-10-14T15:21:40.064Z,40.7
2023-10-14T15:27:41.468Z,37.8
2023-10-14T15:33:42.179Z,41.6
2023-10-14T15:36:41.980Z,59.8
2023-10-14T15:42:43.052Z,77.6
2023-10-14T15:48:44.968Z,25.4
2023-10-14T15:51:43.504Z,41.1
2023-10-14T16:03:52.899Z,44.4
2023-10-14T16:06:50.927Z,16.8
2023-10-14T16:12:51.208Z,12.5
2023-10-14T16:18:51.537Z,12
2023-10-14T16:21:52.276Z,9.8
2023-10-14T16:27:58.292Z,7.1
2023-10-14T16:33:53.020Z,5.2
2023-10-14T16:36:52.981Z,3.7
2023-10-14T16:42:54.269Z,2.7
2023-10-14T16:48:53.293Z,1.4
2023-10-14T16:51:53.411Z,0.8
2023-10-14T16:57:54.669Z,0.1
2023-10-14T17:03:05.324Z,0
2023-10-14T17:09:03.283Z,0
2023-10-14T17:12:04.108Z,0
2023-10-14T17:18:03.188Z,0
2023-10-14T17:24:03.425Z,0
2023-10-14T17:32:42.042Z,0
2023-10-14T17:36:44.484Z,0
2023-10-14T17:42:42.647Z,0
2023-10-14T17:48:43.941Z,0
2023-10-14T17:51:44.175Z,0
2023-10-14T18:03:03.006Z,0
2023-10-14T18:06:53.422Z,0
2023-10-14T18:09:51.559Z,0
2023-10-14T18:12:51.555Z,0
2023-10-14T18:18:53.139Z,0
2023-10-14T18:27:18.788Z,0
2023-10-14T18:31:50.986Z,0
2023-10-14T18:37:18.066Z,0
2023-10-14T18:43:19.300Z,0
2023-10-14T18:46:20.129Z,0
2023-10-14T18:52:19.302Z,0
2023-10-14T18:58:20.047Z,0
2023-10-14T19:03:52.882Z,0
2023-10-14T19:06:43.016Z,0
2023-10-14T19:12:43.800Z,0
2023-10-14T19:18:43.360Z,0
2023-10-14T19:21:42.945Z,0
2023-10-14T19:28:05.280Z,0
2023-10-14T19:33:42.917Z,0
2023-10-14T19:36:43.524Z,0
2023-10-14T19:42:43.175Z,0
2023-10-14T19:48:45.185Z,0
2023-10-14T19:51:43.576Z,0
2023-10-14T19:57:44.207Z,0
2023-10-14T20:02:54.050Z,0
2023-10-14T20:08:55.636Z,0
2023-10-14T20:11:53.588Z,0
2023-10-14T20:17:56.375Z,0
2023-10-14T20:23:59.417Z,0
2023-10-14T20:26:53.628Z,0
2023-10-14T20:32:55.042Z,0
2023-10-14T20:38:54.620Z,0
2023-10-14T20:41:55.030Z,0
2023-10-14T20:47:54.770Z,0
2023-10-14T20:53:56.834Z,0
2023-10-14T21:08:51.187Z,0
2023-10-14T21:14:51.499Z,0
2023-10-14T21:17:52.247Z,0
2023-10-14T21:23:54.288Z,0
2023-10-14T21:29:55.148Z,0
2023-10-14T21:32:53.635Z,0
2023-10-14T21:38:54.590Z,0
2023-10-14T21:44:53.700Z,0
2023-10-14T21:47:54.168Z,0
2023-10-14T21:53:53.849Z,0
2023-10-14T22:02:50.473Z,0
2023-10-14T22:05:55.744Z,0
2023-10-14T22:08:52.763Z,0
2023-10-14T22:11:50.598Z,0
2023-10-14T22:17:53.645Z,0
2023-10-14T22:22:25.111Z,0
2023-10-14T22:23:57.054Z,0
2023-10-14T22:26:52.335Z,0
2023-10-14T22:32:53.662Z,0
2023-10-14T22:38:52.542Z,0
2023-10-14T22:41:52.852Z,0
2023-10-14T22:47:53.245Z,0
2023-10-14T22:53:55.246Z,0
2023-10-14T22:56:53.255Z,0
2023-10-14T23:02:51.906Z,0
2023-10-14T23:08:50.672Z,0
2023-10-14T23:11:51.545Z,0
2023-10-14T23:17:51.401Z,0
2023-10-14T23:23:49.792Z,0
2023-10-14T23:26:50.387Z,0
2023-10-14T23:32:50.201Z,0
2023-10-14T23:41:51.426Z,0
2023-10-14T23:47:51.728Z,0
2023-10-14T23:53:51.387Z,0
2023-10-14T23:56:51.499Z,0
